Terminal Aerodrome Forecast
Issued by NWS Buffalo, NY

Home | Current Version | Previous Version | Text Only | Print | Product List | Glossary On
Versions: 1 2 3 4 5 6 7 8 9 10 11 12 13 14 15 16 17 18 19 20 21 22 23 24
556
FTUS41 KBUF 200912 AAA
TAFROC
TAF AMD
KROC 200912Z 2009/2106 26007KT P6SM OVC009
     FM201300 29008KT P6SM OVC012
     FM201600 31007KT P6SM OVC018
     FM201900 32007KT P6SM BKN110
     FM210200 28006KT P6SM SKC=

USA.gov is the U.S. government's official web portal to all federal, state and local government web resources and services.